createdAt,value
2022-08-05T00:01:00.856Z,3.37
2022-08-05T00:02:07.281Z,3.20
2022-08-05T00:03:15.644Z,3.17
2022-08-05T00:04:25.777Z,3.00
2022-08-05T00:06:04.754Z,3.17
2022-08-05T00:06:55.588Z,3.50
2022-08-05T00:08:01.438Z,3.00
2022-08-05T00:09:12.755Z,2.77
2022-08-05T00:10:17.567Z,3.10
2022-08-05T00:11:30.679Z,2.97
2022-08-05T00:12:55.953Z,3.20
2022-08-05T00:14:00.509Z,2.57
2022-08-05T00:15:54.094Z,3.10
2022-08-05T00:16:53.044Z,3.00
2022-08-05T00:17:56.493Z,3.37
2022-08-05T00:19:06.803Z,2.77
2022-08-05T00:20:09.851Z,3.23
2022-08-05T00:21:14.450Z,3.30
2022-08-05T00:22:17.981Z,3.03
2022-08-05T00:23:44.792Z,2.83
2022-08-05T00:24:55.077Z,3.07
2022-08-05T00:25:57.955Z,2.90
2022-08-05T00:27:04.801Z,2.73
2022-08-05T00:28:13.131Z,3.03
2022-08-05T00:29:25.444Z,2.90
2022-08-05T00:30:29.013Z,2.90
2022-08-05T00:31:54.223Z,2.77
2022-08-05T00:33:04.812Z,3.40
2022-08-05T00:34:56.929Z,2.73
2022-08-05T00:35:33.131Z,2.83
2022-08-05T00:37:10.544Z,3.00
2022-08-05T00:38:06.778Z,2.90
2022-08-05T00:39:14.404Z,3.00
2022-08-05T00:40:27.942Z,2.67
2022-08-05T00:41:51.664Z,2.90
2022-08-05T00:42:55.686Z,3.20
2022-08-05T00:43:59.378Z,2.93
2022-08-05T00:45:02.403Z,3.47
2022-08-05T00:46:12.851Z,2.90
2022-08-05T00:47:17.190Z,2.47
2022-08-05T00:48:27.695Z,2.90
2022-08-05T00:49:50.996Z,2.90
2022-08-05T00:50:54.485Z,2.70
2022-08-05T00:52:04.801Z,3.00
2022-08-05T00:53:09.811Z,2.67
2022-08-05T00:54:32.640Z,3.27
2022-08-05T00:55:42.925Z,2.80
2022-08-05T00:56:53.884Z,2.93
2022-08-05T00:57:58.969Z,2.90
2022-08-05T00:59:02.992Z,2.60
2022-08-05T01:00:11.107Z,2.40
2022-08-05T01:01:42.862Z,2.53
2022-08-05T01:02:45.341Z,2.80
2022-08-05T01:03:49.984Z,2.60
2022-08-05T01:04:52.636Z,2.57
2022-08-05T01:05:56.074Z,2.47
2022-08-05T01:07:06.836Z,2.70
2022-08-05T01:08:40.847Z,2.60
2022-08-05T01:09:41.867Z,2.83
2022-08-05T01:10:51.658Z,2.50
2022-08-05T01:12:00.732Z,2.77
2022-08-05T01:13:19.444Z,2.97
2022-08-05T01:14:34.841Z,2.60
2022-08-05T01:15:47.037Z,2.53
2022-08-05T01:17:02.037Z,2.97
2022-08-05T01:18:06.238Z,2.63
2022-08-05T01:19:17.813Z,2.50
2022-08-05T01:20:32.819Z,3.17
2022-08-05T01:21:52.863Z,2.50
2022-08-05T01:23:13.595Z,2.90
2022-08-05T01:24:25.511Z,2.47
2022-08-05T01:25:57.834Z,2.40
2022-08-05T01:27:15.021Z,2.50
2022-08-05T01:28:37.191Z,2.73
2022-08-05T01:29:46.297Z,2.40
2022-08-05T01:31:00.833Z,2.47
2022-08-05T01:32:12.373Z,2.40
2022-08-05T01:33:25.325Z,2.80
2022-08-05T01:34:31.506Z,2.67
2022-08-05T01:35:51.061Z,2.43
2022-08-05T01:37:04.826Z,2.27
2022-08-05T01:38:07.874Z,2.13
2022-08-05T01:39:36.884Z,2.20
2022-08-05T01:40:41.514Z,2.90
2022-08-05T01:41:45.468Z,2.93
2022-08-05T01:42:58.822Z,2.17
2022-08-05T01:44:04.011Z,2.80
2022-08-05T01:45:14.223Z,2.50
2022-08-05T01:46:42.134Z,2.50
2022-08-05T01:47:48.357Z,2.17
2022-08-05T01:48:51.334Z,2.80
2022-08-05T01:50:01.426Z,2.50
2022-08-05T01:51:12.537Z,2.23
2022-08-05T01:52:23.812Z,2.50
2022-08-05T01:53:54.819Z,2.30
2022-08-05T01:55:00.537Z,2.50
2022-08-05T01:56:04.502Z,2.37
2022-08-05T01:58:10.983Z,2.17
2022-08-05T01:58:45.172Z,3.00
2022-08-05T01:59:57.818Z,2.27
2022-08-05T02:01:04.180Z,2.53
2022-08-05T02:02:07.383Z,2.67
2022-08-05T02:03:29.279Z,2.30
2022-08-05T02:04:42.852Z,2.37
2022-08-05T02:05:50.086Z,2.70
2022-08-05T02:06:56.746Z,2.53
2022-08-05T02:08:01.969Z,2.93
2022-08-05T02:09:11.835Z,2.23
2022-08-05T02:10:28.507Z,2.40
2022-08-05T02:11:42.484Z,2.77
2022-08-05T02:12:54.522Z,2.63
2022-08-05T02:14:01.688Z,2.67
2022-08-05T02:15:19.574Z,2.80
2022-08-05T02:16:30.141Z,2.30
2022-08-05T02:18:32.101Z,2.60
2022-08-05T02:19:01.673Z,2.67
2022-08-05T02:20:20.496Z,2.60
2022-08-05T02:21:27.432Z,2.47
2022-08-05T02:22:36.381Z,2.70
2022-08-05T02:23:43.123Z,2.40
2022-08-05T02:24:53.836Z,2.60
2022-08-05T02:26:06.251Z,2.50
2022-08-05T02:27:11.913Z,2.40
2022-08-05T02:28:16.286Z,2.60
2022-08-05T02:30:00.097Z,2.83
2022-08-05T02:30:59.697Z,2.13
2022-08-05T02:32:09.853Z,2.43
2022-08-05T02:33:16.191Z,2.63
2022-08-05T02:34:29.974Z,2.63
2022-08-05T02:35:49.966Z,2.70
2022-08-05T02:37:07.874Z,2.90
2022-08-05T02:38:11.331Z,2.70
2022-08-05T02:39:24.413Z,2.50
2022-08-05T02:40:27.529Z,2.47
2022-08-05T02:41:58.164Z,2.53
2022-08-05T02:43:09.901Z,2.77
2022-08-05T02:44:13.837Z,2.70
2022-08-05T02:45:18.053Z,2.90
2022-08-05T02:46:27.728Z,2.90
2022-08-05T02:47:58.625Z,2.27
2022-08-05T02:49:03.853Z,2.50
2022-08-05T02:50:08.418Z,3.00
2022-08-05T02:51:28.146Z,2.77
2022-08-05T02:52:52.873Z,2.67
2022-08-05T02:54:03.950Z,2.70
2022-08-05T02:55:10.944Z,2.53
2022-08-05T02:56:15.686Z,2.57
2022-08-05T02:58:11.989Z,2.80
2022-08-05T02:58:52.857Z,3.20
2022-08-05T02:59:57.566Z,2.40
2022-08-05T03:01:03.513Z,2.60
2022-08-05T03:02:15.902Z,2.53
2022-08-05T03:03:19.998Z,2.73
2022-08-05T03:04:27.267Z,3.13
2022-08-05T03:06:55.753Z,2.40
2022-08-05T03:06:59.277Z,3.00
2022-08-05T03:08:09.447Z,3.07
2022-08-05T03:09:15.680Z,2.67
2022-08-05T03:10:24.374Z,2.93
2022-08-05T03:11:57.367Z,2.90
2022-08-05T03:14:07.953Z,2.73
2022-08-05T03:15:31.870Z,2.67
2022-08-05T03:16:42.851Z,2.50
2022-08-05T03:17:48.185Z,2.70
2022-08-05T03:19:12.937Z,2.70
2022-08-05T03:20:24.504Z,2.93
2022-08-05T03:21:28.749Z,2.90
2022-08-05T03:22:32.824Z,2.83
2022-08-05T03:23:37.327Z,3.03
2022-08-05T03:24:52.210Z,3.20
2022-08-05T03:26:04.432Z,3.40
2022-08-05T03:27:19.851Z,2.80
2022-08-05T03:28:22.734Z,2.93
2022-08-05T03:29:45.635Z,2.87
2022-08-05T03:30:56.566Z,2.43
2022-08-05T03:32:00.467Z,2.97
2022-08-05T03:33:07.232Z,2.90
2022-08-05T03:34:10.011Z,2.80
2022-08-05T03:35:21.890Z,2.77
2022-08-05T03:36:30.670Z,2.70
2022-08-05T03:37:41.711Z,3.03
2022-08-05T03:38:53.245Z,2.67
2022-08-05T03:40:05.024Z,3.07
2022-08-05T03:41:10.769Z,2.57
2022-08-05T03:42:13.581Z,2.90
2022-08-05T03:44:09.535Z,2.57
2022-08-05T03:44:43.879Z,3.00
2022-08-05T03:45:57.271Z,2.67
2022-08-05T03:47:03.528Z,2.77
2022-08-05T03:48:07.787Z,2.67
2022-08-05T03:49:11.506Z,2.83
2022-08-05T03:50:17.451Z,2.77
2022-08-05T03:52:38.779Z,3.10
2022-08-05T03:55:52.518Z,2.57
2022-08-05T03:55:54.209Z,3.00
2022-08-05T03:56:10.412Z,2.53
2022-08-05T03:57:19.455Z,2.77
2022-08-05T03:58:30.889Z,3.07
2022-08-05T03:59:46.984Z,2.80
2022-08-05T04:00:57.957Z,2.70
2022-08-05T04:02:04.582Z,2.73
2022-08-05T04:03:28.631Z,2.67
2022-08-05T04:04:33.463Z,2.57
2022-08-05T04:05:37.029Z,2.70
2022-08-05T04:06:47.820Z,2.87
2022-08-05T04:07:58.618Z,3.10
2022-08-05T04:09:10.893Z,3.17
2022-08-05T04:10:13.492Z,2.70
2022-08-05T04:11:21.487Z,2.33
2022-08-05T04:12:25.321Z,2.97
2022-08-05T04:13:49.799Z,2.80
2022-08-05T04:14:57.784Z,2.50
2022-08-05T04:16:08.828Z,2.70
2022-08-05T04:17:18.322Z,2.50
2022-08-05T04:18:31.912Z,3.10
2022-08-05T04:19:43.329Z,2.93
2022-08-05T04:20:53.503Z,2.90
2022-08-05T04:22:08.467Z,2.90
2022-08-05T04:23:15.864Z,2.80
2022-08-05T04:24:25.865Z,2.60
2022-08-05T04:25:56.856Z,2.80
2022-08-05T04:26:53.817Z,2.77
2022-08-05T04:27:59.677Z,2.60
2022-08-05T04:29:14.309Z,2.50
2022-08-05T04:30:17.225Z,2.63
2022-08-05T04:31:20.860Z,2.60
2022-08-05T04:32:30.574Z,2.87
2022-08-05T04:34:17.510Z,2.60
2022-08-05T04:35:06.891Z,2.50
2022-08-05T04:36:44.901Z,2.70
2022-08-05T04:38:02.424Z,2.63
2022-08-05T04:39:13.963Z,2.77
2022-08-05T04:40:19.635Z,2.63
2022-08-05T04:41:22.416Z,2.87
2022-08-05T04:42:40.592Z,2.47
2022-08-05T04:43:48.191Z,2.40
2022-08-05T04:45:02.891Z,2.43
2022-08-05T04:46:05.546Z,2.60
2022-08-05T04:47:20.015Z,2.53
2022-08-05T04:48:28.156Z,2.50
2022-08-05T04:49:39.053Z,3.10
2022-08-05T04:51:11.471Z,2.23
2022-08-05T04:52:15.179Z,2.83
2022-08-05T04:53:19.280Z,2.50
2022-08-05T04:54:26.971Z,2.60
2022-08-05T04:56:15.512Z,2.57
2022-08-05T04:57:01.950Z,2.53
2022-08-05T04:58:06.489Z,2.30
2022-08-05T04:59:24.039Z,2.53
2022-08-05T05:00:40.195Z,2.50
2022-08-05T05:02:07.982Z,2.80
2022-08-05T05:03:13.997Z,2.50
2022-08-05T05:04:21.419Z,2.20
2022-08-05T05:05:28.749Z,2.73
2022-08-05T05:06:39.034Z,3.23
2022-08-05T05:07:56.495Z,2.80
2022-08-05T05:09:05.541Z,2.70
2022-08-05T05:10:08.349Z,2.60
2022-08-05T05:11:15.186Z,2.40
2022-08-05T05:12:17.918Z,2.60
2022-08-05T05:13:32.438Z,2.50
2022-08-05T05:14:50.810Z,2.60
2022-08-05T05:16:05.864Z,2.47
2022-08-05T05:17:24.498Z,2.50
2022-08-05T05:18:34.924Z,2.67
2022-08-05T05:19:44.189Z,2.30
2022-08-05T05:20:52.159Z,2.63
2022-08-05T05:21:56.752Z,2.47
2022-08-05T05:23:01.387Z,2.37
2022-08-05T05:24:17.886Z,2.63
2022-08-05T05:25:21.072Z,2.47
2022-08-05T05:26:39.693Z,2.60
2022-08-05T05:27:45.495Z,2.30
2022-08-05T05:28:58.905Z,2.50
2022-08-05T05:30:04.002Z,2.70
2022-08-05T05:31:08.792Z,2.30
2022-08-05T05:32:12.504Z,2.00
2022-08-05T05:33:26.167Z,2.37
2022-08-05T05:34:30.348Z,2.47
2022-08-05T05:35:39.636Z,2.40
2022-08-05T05:36:47.920Z,2.40
2022-08-05T05:37:59.511Z,2.40
2022-08-05T05:39:11.499Z,2.60
2022-08-05T05:40:15.723Z,2.40
2022-08-05T05:41:19.302Z,2.20
2022-08-05T05:42:22.090Z,2.43
2022-08-05T05:43:57.130Z,2.17
2022-08-05T05:44:59.382Z,2.40
2022-08-05T05:46:02.151Z,2.17
2022-08-05T05:47:21.653Z,2.20
2022-08-05T05:48:27.477Z,2.50
2022-08-05T05:49:31.330Z,2.50
2022-08-05T05:50:44.304Z,2.20
2022-08-05T05:51:49.627Z,2.67
2022-08-05T05:52:54.237Z,2.77
2022-08-05T05:54:00.058Z,2.67
2022-08-05T05:55:07.495Z,2.20
2022-08-05T05:56:25.822Z,2.67
2022-08-05T05:57:51.942Z,3.03
2022-08-05T05:58:56.542Z,2.60
2022-08-05T06:00:07.530Z,2.47
2022-08-05T06:01:15.324Z,3.03
2022-08-05T06:02:37.494Z,2.60
2022-08-05T06:04:01.635Z,2.77
2022-08-05T06:05:10.633Z,2.13
2022-08-05T06:06:22.358Z,2.43
2022-08-05T06:07:41.285Z,2.67
2022-08-05T06:08:49.204Z,2.90
2022-08-05T06:10:04.454Z,2.13
2022-08-05T06:11:09.306Z,2.70
2022-08-05T06:12:22.964Z,2.23
2022-08-05T06:13:30.682Z,2.37
2022-08-05T06:14:45.072Z,2.50
2022-08-05T06:16:28.322Z,2.30
2022-08-05T06:17:31.249Z,2.30
2022-08-05T06:18:33.744Z,2.13
2022-08-05T06:19:42.800Z,2.27
2022-08-05T06:20:58.991Z,2.60
2022-08-05T06:22:02.484Z,2.20
2022-08-05T06:23:13.927Z,2.60
2022-08-05T06:24:18.330Z,2.17
2022-08-05T06:26:13.927Z,2.27
2022-08-05T06:26:53.343Z,2.73
2022-08-05T06:28:12.247Z,2.20
2022-08-05T06:29:48.901Z,2.60
2022-08-05T06:31:00.972Z,2.40
2022-08-05T06:32:25.674Z,2.37
2022-08-05T06:33:33.384Z,2.73
2022-08-05T06:34:54.169Z,2.23
2022-08-05T06:36:09.676Z,2.10
2022-08-05T06:37:14.208Z,2.10
2022-08-05T06:38:36.429Z,2.38
2022-08-05T06:39:47.163Z,2.33
2022-08-05T06:40:49.942Z,2.47
2022-08-05T06:41:54.264Z,2.47
2022-08-05T06:42:58.038Z,2.47
2022-08-05T06:44:07.126Z,2.50
2022-08-05T06:45:10.795Z,2.42
2022-08-05T06:46:31.128Z,2.60
2022-08-05T06:48:44.194Z,2.05
2022-08-05T06:49:05.887Z,3.00
2022-08-05T06:50:10.912Z,2.40
2022-08-05T06:51:30.984Z,2.70
2022-08-05T06:52:36.897Z,2.33
2022-08-05T06:53:42.213Z,2.20
2022-08-05T06:55:04.001Z,2.58
2022-08-05T06:56:07.148Z,2.30
2022-08-05T06:58:02.808Z,2.67
2022-08-05T06:58:52.092Z,2.83
2022-08-05T06:59:58.351Z,2.40
2022-08-05T07:01:08.014Z,3.33
2022-08-05T07:02:11.952Z,2.47
2022-08-05T07:03:17.692Z,2.60
2022-08-05T07:04:21.153Z,2.63
2022-08-05T07:05:37.669Z,2.33
2022-08-05T07:06:44.501Z,2.35
2022-08-05T07:07:49.022Z,2.30
2022-08-05T07:08:55.022Z,2.20
2022-08-05T07:10:04.970Z,2.60
2022-08-05T07:11:15.497Z,2.80
2022-08-05T07:12:33.094Z,2.53
2022-08-05T07:14:00.972Z,2.63
2022-08-05T07:15:34.586Z,2.45
2022-08-05T07:18:02.424Z,2.00
2022-08-05T07:18:27.283Z,2.78
2022-08-05T07:20:29.822Z,3.05
2022-08-05T07:21:05.357Z,2.08
2022-08-05T07:22:08.363Z,2.55
2022-08-05T07:23:13.045Z,2.47
2022-08-05T07:24:31.368Z,2.22
2022-08-05T07:25:54.641Z,2.45
2022-08-05T07:27:02.798Z,2.28
2022-08-05T07:28:17.374Z,3.05
2022-08-05T07:29:20.450Z,2.10
2022-08-05T07:30:44.379Z,2.75
2022-08-05T07:31:54.694Z,2.67
2022-08-05T07:33:05.554Z,2.45
2022-08-05T07:34:13.958Z,2.40
2022-08-05T07:36:03.317Z,2.40
2022-08-05T07:36:48.923Z,2.40
2022-08-05T07:37:54.128Z,2.83
2022-08-05T07:38:58.911Z,2.70
2022-08-05T07:40:25.994Z,2.67
2022-08-05T07:42:13.453Z,2.60
2022-08-05T07:42:56.381Z,2.38
2022-08-05T07:44:02.541Z,2.40
2022-08-05T07:45:09.325Z,2.58
2022-08-05T07:46:24.274Z,2.60
2022-08-05T07:47:42.525Z,2.65
2022-08-05T07:49:02.217Z,2.75
2022-08-05T07:50:09.040Z,2.45
2022-08-05T07:51:23.873Z,2.58
2022-08-05T07:52:45.980Z,2.45
2022-08-05T07:53:56.980Z,2.17
2022-08-05T07:55:01.492Z,2.20
2022-08-05T07:56:49.018Z,2.10
2022-08-05T07:58:02.200Z,2.33
2022-08-05T07:59:00.167Z,2.10
2022-08-05T08:00:04.602Z,1.90
2022-08-05T08:01:14.197Z,2.38
2022-08-05T08:02:18.990Z,2.05
2022-08-05T08:03:44.090Z,2.67
2022-08-05T08:04:54.963Z,2.40
2022-08-05T08:05:58.328Z,2.60
2022-08-05T08:07:01.661Z,2.83
2022-08-05T08:08:12.403Z,2.20
2022-08-05T08:09:37.438Z,2.03
2022-08-05T08:10:48.809Z,3.50
2022-08-05T08:12:00.229Z,2.58
2022-08-05T08:13:07.849Z,2.40
2022-08-05T08:14:18.407Z,2.63
2022-08-05T08:16:35.915Z,2.83
2022-08-05T08:17:17.051Z,2.30
2022-08-05T08:18:20.937Z,2.28
2022-08-05T08:20:10.186Z,2.38
2022-08-05T08:21:02.819Z,2.60
2022-08-05T08:22:06.751Z,2.42
2022-08-05T08:24:01.137Z,2.10
2022-08-05T08:24:51.061Z,2.60
2022-08-05T08:25:59.878Z,2.47
2022-08-05T08:27:20.646Z,2.00
2022-08-05T08:28:36.223Z,2.28
2022-08-05T08:30:04.623Z,2.20
2022-08-05T08:31:10.052Z,2.17
2022-08-05T08:32:28.065Z,2.47
2022-08-05T08:33:35.933Z,2.10
2022-08-05T08:34:40.754Z,2.72
2022-08-05T08:35:52.720Z,1.95
2022-08-05T08:37:05.479Z,2.55
2022-08-05T08:38:11.675Z,2.60
2022-08-05T08:39:19.249Z,2.08
2022-08-05T08:40:22.941Z,2.17
2022-08-05T08:41:51.842Z,2.30
2022-08-05T08:45:16.491Z,2.05
2022-08-05T08:45:16.892Z,2.30
2022-08-05T08:45:56.095Z,2.40
2022-08-05T08:46:59.514Z,2.45
2022-08-05T08:48:22.369Z,2.15
2022-08-05T08:50:29.772Z,1.90
2022-08-05T08:51:22.019Z,1.88
2022-08-05T08:52:26.022Z,2.42
2022-08-05T08:53:36.034Z,2.15
2022-08-05T08:54:39.855Z,2.28
2022-08-05T08:56:04.980Z,1.92
2022-08-05T08:57:11.206Z,2.05
2022-08-05T08:58:26.168Z,2.00
2022-08-05T08:59:56.111Z,2.40
2022-08-05T09:01:00.398Z,1.98
2022-08-05T09:02:08.535Z,1.90
2022-08-05T09:03:15.950Z,1.58
2022-08-05T09:04:21.742Z,1.88
2022-08-05T09:06:09.162Z,1.95
2022-08-05T09:07:04.426Z,3.05
2022-08-05T09:08:30.369Z,1.88
2022-08-05T09:09:40.025Z,1.75
2022-08-05T09:10:46.853Z,2.38
2022-08-05T09:11:53.167Z,2.25
2022-08-05T09:13:05.052Z,2.00
2022-08-05T09:14:57.860Z,1.80
2022-08-05T09:15:40.126Z,1.60
2022-08-05T09:16:49.264Z,1.67
2022-08-05T09:18:06.042Z,1.88
2022-08-05T09:19:12.058Z,1.95
2022-08-05T09:20:37.250Z,1.80
2022-08-05T09:22:23.267Z,2.72
2022-08-05T09:23:18.512Z,1.65
2022-08-05T09:24:22.602Z,1.90
2022-08-05T09:26:02.612Z,1.80
2022-08-05T09:26:59.113Z,1.77
2022-08-05T09:28:15.243Z,1.50
2022-08-05T09:29:47.625Z,1.70
2022-08-05T09:31:02.080Z,1.35
2022-08-05T09:32:42.786Z,1.80
2022-08-05T09:33:49.865Z,1.75
2022-08-05T09:34:56.261Z,1.70
2022-08-05T09:36:01.787Z,2.47
2022-08-05T09:38:17.089Z,1.85
2022-08-05T09:39:02.537Z,2.30
2022-08-05T09:40:06.534Z,1.90
2022-08-05T09:41:17.284Z,1.58
2022-08-05T09:42:28.492Z,1.48
2022-08-05T09:43:40.503Z,2.03
2022-08-05T09:44:50.438Z,1.75
2022-08-05T09:46:06.569Z,1.77
2022-08-05T09:47:20.652Z,1.70
2022-08-05T09:48:26.936Z,1.60
2022-08-05T09:49:54.891Z,1.80
2022-08-05T09:50:56.366Z,1.73
2022-08-05T09:51:58.875Z,1.50
2022-08-05T09:53:13.034Z,1.75
2022-08-05T09:54:32.476Z,2.00
2022-08-05T09:55:57.261Z,1.63
2022-08-05T09:57:01.148Z,1.50
2022-08-05T09:58:18.024Z,1.55
2022-08-05T09:59:27.502Z,1.70
2022-08-05T10:00:33.875Z,1.85
2022-08-05T10:01:40.528Z,2.58
2022-08-05T10:02:50.371Z,2.00
2022-08-05T10:04:04.033Z,2.20
2022-08-05T10:05:09.809Z,1.58
2022-08-05T10:06:15.635Z,1.85
2022-08-05T10:07:20.310Z,1.95
2022-08-05T10:08:37.394Z,2.28
2022-08-05T10:10:13.868Z,1.98
2022-08-05T10:11:18.992Z,1.60
2022-08-05T10:12:33.286Z,1.88
2022-08-05T10:13:47.475Z,1.83
2022-08-05T10:14:57.109Z,1.85
2022-08-05T10:16:23.040Z,2.28
2022-08-05T10:17:37.397Z,1.52
2022-08-05T10:18:47.955Z,1.65
2022-08-05T10:20:03.999Z,1.70
2022-08-05T10:21:20.072Z,1.88
2022-08-05T10:22:29.706Z,1.58
2022-08-05T10:23:59.924Z,1.73
2022-08-05T10:24:58.810Z,1.65
2022-08-05T10:26:14.558Z,1.88
2022-08-05T10:27:17.580Z,1.40
2022-08-05T10:28:30.799Z,1.75
2022-08-05T10:30:42.042Z,1.75
2022-08-05T10:32:54.586Z,2.13
2022-08-05T10:32:55.165Z,1.60
2022-08-05T10:33:55.554Z,1.88
2022-08-05T10:35:01.120Z,1.70
2022-08-05T10:36:05.652Z,1.50
2022-08-05T10:37:15.045Z,1.50
2022-08-05T10:38:20.864Z,1.67
2022-08-05T10:40:04.037Z,1.65
2022-08-05T10:40:59.062Z,2.05
2022-08-05T10:42:11.338Z,1.90
2022-08-05T10:43:19.933Z,1.77
2022-08-05T10:44:26.705Z,1.40
2022-08-05T10:45:40.122Z,2.08
2022-08-05T10:46:45.548Z,1.52
2022-08-05T10:48:30.071Z,1.50
2022-08-05T10:49:26.756Z,1.70
2022-08-05T10:50:36.280Z,2.20
2022-08-05T10:51:57.680Z,1.45
2022-08-05T10:53:11.078Z,1.67
2022-08-05T10:54:28.208Z,1.45
2022-08-05T10:56:03.699Z,2.80
2022-08-05T10:56:59.787Z,1.55
2022-08-05T10:58:18.016Z,1.75
2022-08-05T11:00:03.437Z,1.65
2022-08-05T11:00:55.351Z,1.50
2022-08-05T11:02:14.273Z,1.95
2022-08-05T11:03:42.196Z,2.08
2022-08-05T11:04:46.308Z,2.05
2022-08-05T11:06:04.010Z,1.45
2022-08-05T11:07:11.922Z,1.75
2022-08-05T11:08:36.592Z,1.42
2022-08-05T11:09:46.572Z,1.90
2022-08-05T11:11:01.105Z,1.80
2022-08-05T11:12:07.230Z,2.03
2022-08-05T11:13:39.101Z,1.63
2022-08-05T11:15:19.136Z,1.83
2022-08-05T11:16:47.713Z,1.58
2022-08-05T11:18:11.741Z,1.50
2022-08-05T11:20:11.015Z,1.60
2022-08-05T11:21:00.586Z,1.60
2022-08-05T11:22:19.283Z,1.50
2022-08-05T11:24:05.018Z,1.98
2022-08-05T11:26:05.898Z,1.88
2022-08-05T11:27:15.089Z,1.80
2022-08-05T11:28:36.304Z,1.58
2022-08-05T11:29:41.755Z,1.80
2022-08-05T11:31:10.115Z,1.83
2022-08-05T11:32:35.099Z,1.65
2022-08-05T11:33:46.449Z,1.83
2022-08-05T11:34:54.352Z,1.60
2022-08-05T11:36:07.938Z,1.63
2022-08-05T11:38:28.065Z,2.00
2022-08-05T11:38:55.935Z,1.60
2022-08-05T11:40:03.496Z,1.52
2022-08-05T11:41:34.735Z,2.00
2022-08-05T11:42:40.567Z,1.40
2022-08-05T11:44:00.706Z,1.63
2022-08-05T11:45:23.317Z,1.45
2022-08-05T11:46:32.691Z,1.67
2022-08-05T11:47:49.614Z,1.52
2022-08-05T11:48:53.029Z,1.95
2022-08-05T11:50:01.767Z,1.58
2022-08-05T11:51:04.454Z,1.80
2022-08-05T11:52:11.804Z,1.80
2022-08-05T11:53:21.118Z,1.30
2022-08-05T11:54:34.034Z,1.45
2022-08-05T11:55:44.113Z,1.63
2022-08-05T11:56:52.330Z,1.40
2022-08-05T11:58:10.254Z,1.63
2022-08-05T11:59:16.111Z,1.55
2022-08-05T12:00:38.256Z,1.85
2022-08-05T12:01:52.918Z,1.67
2022-08-05T12:02:56.607Z,1.42
2022-08-05T12:04:07.132Z,1.70
2022-08-05T12:05:18.012Z,1.45
2022-08-05T12:06:22.388Z,1.85
2022-08-05T12:08:07.946Z,1.70
2022-08-05T12:08:57.147Z,1.67
2022-08-05T12:10:11.638Z,1.65
2022-08-05T12:11:22.177Z,1.90
2022-08-05T12:12:25.845Z,1.77
2022-08-05T12:13:48.754Z,1.30
2022-08-05T12:14:53.293Z,1.33
2022-08-05T12:16:14.127Z,1.70
2022-08-05T12:18:03.564Z,1.60
2022-08-05T12:19:02.664Z,1.77
2022-08-05T12:20:26.289Z,1.80
2022-08-05T12:21:40.126Z,1.70
2022-08-05T12:22:46.264Z,1.60
2022-08-05T12:24:04.543Z,1.80
2022-08-05T12:25:09.285Z,1.65
2022-08-05T12:26:23.929Z,1.83
2022-08-05T12:27:32.832Z,1.85
2022-08-05T12:28:36.715Z,1.60
2022-08-05T12:29:40.504Z,1.98
2022-08-05T12:30:45.815Z,1.92
2022-08-05T12:31:57.117Z,1.75
2022-08-05T12:33:07.428Z,2.08
2022-08-05T12:34:28.551Z,1.75
2022-08-05T12:35:37.144Z,1.48
2022-08-05T12:36:55.102Z,1.40
2022-08-05T12:37:58.010Z,1.52
2022-08-05T12:39:02.001Z,1.60
2022-08-05T12:40:11.326Z,1.85
2022-08-05T12:41:34.351Z,1.55
2022-08-05T12:42:45.301Z,1.48
2022-08-05T12:43:52.675Z,1.45
2022-08-05T12:45:03.465Z,1.50
2022-08-05T12:46:26.156Z,1.45
2022-08-05T12:48:01.056Z,1.63
2022-08-05T12:49:13.098Z,1.73
2022-08-05T12:50:19.798Z,1.63
2022-08-05T12:52:12.422Z,1.48
2022-08-05T12:53:04.156Z,1.42
2022-08-05T12:54:16.773Z,1.65
2022-08-05T12:55:28.333Z,1.33
2022-08-05T12:56:35.126Z,1.80
2022-08-05T12:58:39.029Z,1.50
2022-08-05T12:59:21.099Z,1.30
2022-08-05T13:01:59.783Z,1.83
2022-08-05T13:02:00.182Z,1.92
2022-08-05T13:03:16.210Z,1.55
2022-08-05T13:04:21.290Z,1.60
2022-08-05T13:05:23.986Z,1.67
2022-08-05T13:06:31.989Z,1.60
2022-08-05T13:08:00.433Z,1.70
2022-08-05T13:09:28.013Z,1.70
2022-08-05T13:10:33.591Z,2.25
2022-08-05T13:12:02.738Z,1.95
2022-08-05T13:13:03.533Z,1.50
2022-08-05T13:14:19.451Z,2.05
2022-08-05T13:15:24.117Z,1.30
2022-08-05T13:16:47.106Z,1.48
2022-08-05T13:17:55.666Z,1.45
2022-08-05T13:19:09.132Z,1.50
2022-08-05T13:20:17.271Z,1.80
2022-08-05T13:21:23.238Z,1.40
2022-08-05T13:22:32.265Z,2.65
2022-08-05T13:23:34.764Z,1.70
2022-08-05T13:25:05.468Z,1.50
2022-08-05T13:26:09.457Z,1.63
2022-08-05T13:27:17.003Z,1.50
2022-08-05T13:28:26.557Z,1.98
2022-08-05T13:29:37.808Z,1.60
2022-08-05T13:30:48.468Z,1.45
2022-08-05T13:32:04.225Z,1.98
2022-08-05T13:33:08.542Z,1.80
2022-08-05T13:34:21.798Z,1.45
2022-08-05T13:35:46.922Z,1.35
2022-08-05T13:36:55.290Z,1.30
2022-08-05T13:37:57.740Z,1.48
2022-08-05T13:39:24.820Z,1.30
2022-08-05T13:40:52.007Z,1.73
2022-08-05T13:41:55.859Z,1.60
2022-08-05T13:42:58.472Z,1.20
2022-08-05T13:44:02.059Z,1.38
2022-08-05T13:45:04.812Z,1.30
2022-08-05T13:46:35.832Z,1.60
2022-08-05T13:48:09.184Z,1.58
2022-08-05T13:49:05.772Z,1.50
2022-08-05T13:50:16.629Z,1.40
2022-08-05T13:51:40.292Z,1.83
2022-08-05T13:52:44.742Z,1.52
2022-08-05T13:53:56.394Z,1.42
2022-08-05T13:55:01.017Z,1.60
2022-08-05T13:56:18.184Z,1.35
2022-08-05T13:57:48.626Z,1.23
2022-08-05T13:58:53.445Z,1.27
2022-08-05T14:00:01.765Z,1.58
2022-08-05T14:01:05.247Z,1.15
2022-08-05T14:02:19.948Z,1.60
2022-08-05T14:03:22.829Z,1.50
2022-08-05T14:04:43.759Z,1.80
2022-08-05T14:06:25.246Z,1.83
2022-08-05T14:07:26.148Z,2.20
2022-08-05T14:08:45.463Z,1.73
2022-08-05T14:09:47.999Z,1.60
2022-08-05T14:11:08.077Z,1.60
2022-08-05T14:12:32.711Z,1.38
2022-08-05T14:13:36.514Z,1.70
2022-08-05T14:14:39.133Z,1.52
2022-08-05T14:16:05.914Z,1.30
2022-08-05T14:17:33.525Z,1.50
2022-08-05T14:18:37.993Z,1.60
2022-08-05T14:19:54.132Z,1.52
2022-08-05T14:21:23.879Z,2.00
2022-08-05T14:22:34.258Z,1.40
2022-08-05T14:23:44.176Z,1.50
2022-08-05T14:24:47.634Z,1.40
2022-08-05T14:25:54.553Z,3.53
2022-08-05T14:27:17.637Z,1.20
2022-08-05T14:28:26.189Z,1.98
2022-08-05T14:29:37.199Z,1.50
2022-08-05T14:30:42.997Z,1.45
2022-08-05T14:32:03.109Z,1.50
2022-08-05T14:33:16.297Z,1.50
2022-08-05T14:34:35.683Z,1.33
2022-08-05T14:35:50.517Z,1.40
2022-08-05T14:36:54.519Z,1.70
2022-08-05T14:37:58.136Z,1.52
2022-08-05T14:39:05.865Z,2.55
2022-08-05T14:40:21.227Z,1.77
2022-08-05T14:41:28.009Z,1.40
2022-08-05T14:42:31.209Z,1.50
2022-08-05T14:43:53.861Z,1.52
2022-08-05T14:44:59.595Z,1.50
2022-08-05T14:46:09.192Z,2.03
2022-08-05T14:47:12.793Z,1.60
2022-08-05T14:48:33.194Z,1.52
2022-08-05T14:49:59.516Z,1.60
2022-08-05T14:51:10.178Z,1.63
2022-08-05T14:52:42.883Z,1.88
2022-08-05T14:53:44.083Z,1.70
2022-08-05T14:54:53.074Z,1.40
2022-08-05T14:56:03.470Z,1.70
2022-08-05T14:57:09.770Z,1.48
2022-08-05T14:58:17.260Z,1.92
2022-08-05T14:59:23.080Z,1.35
2022-08-05T15:00:27.939Z,1.38
2022-08-05T15:01:48.720Z,1.60
2022-08-05T15:02:52.862Z,1.65
2022-08-05T15:03:56.989Z,1.60
2022-08-05T15:04:59.584Z,1.50
2022-08-05T15:06:07.481Z,1.48
2022-08-05T15:08:08.704Z,1.90
2022-08-05T15:09:01.343Z,1.80
2022-08-05T15:10:09.828Z,2.80
2022-08-05T15:11:12.687Z,2.25
2022-08-05T15:12:24.219Z,2.28
2022-08-05T15:13:46.550Z,2.20
2022-08-05T15:14:54.977Z,2.70
2022-08-05T15:15:58.709Z,2.17
2022-08-05T15:17:46.549Z,2.35
2022-08-05T15:18:47.186Z,2.90
2022-08-05T15:19:50.115Z,2.65
2022-08-05T15:20:58.585Z,2.80
2022-08-05T15:22:10.335Z,2.50
2022-08-05T15:23:21.212Z,2.30
2022-08-05T15:24:25.905Z,2.53
2022-08-05T15:25:41.235Z,2.88
2022-08-05T15:26:52.815Z,2.83
2022-08-05T15:28:02.202Z,1.90
2022-08-05T15:29:05.662Z,2.40
2022-08-05T15:30:11.042Z,2.20
2022-08-05T15:31:17.834Z,2.63
2022-08-05T15:32:28.626Z,2.35
2022-08-05T15:34:05.909Z,2.47
2022-08-05T15:35:04.129Z,3.08
2022-08-05T15:36:17.519Z,2.80
2022-08-05T15:38:33.731Z,2.22
2022-08-05T15:40:41.795Z,2.83
2022-08-05T15:41:03.017Z,2.42
2022-08-05T15:41:56.285Z,2.55
2022-08-05T15:43:11.211Z,3.08
2022-08-05T15:44:23.284Z,2.65
2022-08-05T15:45:38.547Z,2.53
2022-08-05T15:46:42.453Z,2.60
2022-08-05T15:47:46.025Z,2.97
2022-08-05T15:48:53.123Z,3.05
2022-08-05T15:50:09.235Z,2.75
2022-08-05T15:51:22.570Z,2.50
2022-08-05T15:52:54.323Z,3.08
2022-08-05T15:53:58.957Z,2.45
2022-08-05T15:55:08.297Z,2.60
2022-08-05T15:56:14.242Z,2.75
2022-08-05T15:57:17.184Z,2.53
2022-08-05T15:58:20.765Z,2.85
2022-08-05T15:59:25.847Z,2.90
2022-08-05T16:00:50.553Z,2.72
2022-08-05T16:02:03.893Z,2.78
2022-08-05T16:03:12.475Z,2.75
2022-08-05T16:04:18.966Z,2.97
2022-08-05T16:05:29.229Z,3.08
2022-08-05T16:06:39.295Z,3.17
2022-08-05T16:07:46.477Z,2.60
2022-08-05T16:08:50.353Z,3.38
2022-08-05T16:09:54.895Z,3.03
2022-08-05T16:10:57.745Z,2.95
2022-08-05T16:12:08.385Z,2.88